Bendfeld, Germany

4:16 PM CEST on May 25, 2017 (GMT +0200)
Knüll | | Change Station

Elev 137 ft 54.32 °N, 10.38 °E | Updated 4 minutes ago

Partly Cloudy
Partly Cloudy
77.2 °F
Feels Like 79 °F
N
1.9
Wind Variable Wind from NW
Gusts 6.8 mph

Today
High -- | Low -- °F
--% Chance of Precip.
Yesterday
High -- | Low -- °F
Precip. -- in
Pressure 30.18 in
Visibility 6.2 miles
Clouds Few 3000 ft
Scattered Clouds 23000 ft
Heat Index 79 °F
Dew Point 59 °F
Humidity 53%
Rainfall 0.00 in
Snow Depth Not available.
4:58 AM 9:32 PM
Waning Crescent, 0% visible
METAR ETNH 251320Z 31014KT 9999 FEW030 SCT230 20/12 Q1022 BLU+
Pressure 30.18 in
Visibility 6.2 miles
Clouds Few 3000 ft
Scattered Clouds 23000 ft
Heat Index 79 °F
Dew Point 59 °F
Humidity 53%
Rainfall 0.00 in
Snow Depth Not available.
4:58 AM 9:32 PM
Waning Crescent, 0% visible
METAR ETNH 251320Z 31014KT 9999 FEW030 SCT230 20/12 Q1022 BLU+

Get Severe Weather Alerts

Thanks for signing up!

Be on the lookout for a verification email in your inbox.

You'll start receiving the daily forecast at 6 AM.

×

10-Day Weather Forecast

×

Almanac

Astronomy

May. 25, 2017 Rise Set
Actual Time
Civil Twilight
Nautical Twilight
Astronomical Twilight
Moon
Length of Visible Light
Length of Day
Tomorrow will be .
, % of the Moon is Illuminated

Today's Extremes

Country Highs Country Lows

Community

WunderPhotos

Category 6

Welcome to Category 6. This is the collective home for Weather Underground's featured writeups by Dr. Jeff Masters (right), Bob Henson (left), Chris Burt, and other regular contributors.

Nearby

Air Quality

  Air Quality AQ Index Pollutant
Not available.

Snow Depth

Station Depth Elevation

Earthquake Activity

City Distance Mag. Time & Date
Minimum magnitude displayed is 2.5.

Coastal Water Temperatures

Place Temperature

Stations

Nearby Weather Stations

Station Location Temp. Windchill Dew Point Humidity Wind Precip. Elev Updated Type